createdAt,value
2024-05-09T00:00:03.788Z,86.3
2024-05-09T00:15:02.703Z,86.7
2024-05-09T00:30:04.255Z,87.1
2024-05-09T00:45:02.572Z,87.5
2024-05-09T01:00:04.746Z,88.1
2024-05-09T01:15:02.472Z,88.1
2024-05-09T01:30:04.099Z,88.6
2024-05-09T01:45:03.330Z,88.8
2024-05-09T02:00:03.018Z,89.0
2024-05-09T02:15:03.318Z,89.3
2024-05-09T02:30:02.843Z,89.8
2024-05-09T02:45:03.280Z,89.8
2024-05-09T03:00:02.646Z,90.5
2024-05-09T03:15:02.951Z,90.8
2024-05-09T03:30:03.827Z,91.0
2024-05-09T03:45:02.833Z,91.2
2024-05-09T04:00:02.971Z,91.6
2024-05-09T04:15:02.705Z,92.1
2024-05-09T04:30:02.333Z,92.5
2024-05-09T04:45:02.570Z,92.8
2024-05-09T05:00:05.454Z,93.0
2024-05-09T05:15:02.467Z,93.4
2024-05-09T05:30:03.537Z,93.9
2024-05-09T05:45:02.405Z,94.2
2024-05-09T06:00:04.153Z,94.2
2024-05-09T06:15:03.359Z,94.2
2024-05-09T06:30:02.988Z,94.4
2024-05-09T06:45:03.281Z,94.2
2024-05-09T07:00:02.552Z,92.6
2024-05-09T07:15:02.026Z,87.8
2024-05-09T07:30:05.378Z,72.3
2024-05-09T07:45:21.257Z,59.2
2024-05-09T08:00:02.508Z,52.6
2024-05-09T08:15:02.807Z,49.6
2024-05-09T08:30:02.384Z,46.9
2024-05-09T08:45:02.659Z,43.1
2024-05-09T09:00:04.811Z,46.3
2024-05-09T09:15:02.493Z,43.8
2024-05-09T09:30:03.598Z,44.6
2024-05-09T09:45:05.549Z,44.4
2024-05-09T10:00:05.623Z,42.9
2024-05-09T10:15:02.426Z,45.7
2024-05-09T10:30:06.722Z,47.8
2024-05-09T10:45:02.121Z,47.4
2024-05-09T11:00:02.627Z,41.3
2024-05-09T11:15:02.986Z,45.3
2024-05-09T11:30:03.230Z,42.7
2024-05-09T11:45:02.852Z,43.2
2024-05-09T12:00:03.245Z,43.4
2024-05-09T12:15:02.807Z,44.6
2024-05-09T12:30:02.536Z,42.5
2024-05-09T12:45:02.647Z,41.3
2024-05-09T13:00:04.241Z,43.0
2024-05-09T13:15:02.542Z,44.5
2024-05-09T13:30:03.030Z,42.6
2024-05-09T13:45:02.438Z,41.3
2024-05-09T14:00:03.746Z,41.1
2024-05-09T14:15:02.458Z,41.9
2024-05-09T14:30:04.228Z,41.3
2024-05-09T14:45:03.192Z,41.3
2024-05-09T15:00:03.768Z,42.1
2024-05-09T15:15:02.023Z,41.6
2024-05-09T15:30:03.280Z,40.8
2024-05-09T15:45:02.935Z,42.7
2024-05-09T16:00:02.742Z,44.4
2024-05-09T16:15:02.823Z,44.2
2024-05-09T16:30:04.037Z,47.4
2024-05-09T16:45:02.702Z,48.6
2024-05-09T17:00:04.380Z,51.7
2024-05-09T17:15:02.686Z,52.0
2024-05-09T17:30:01.983Z,53.0
2024-05-09T17:45:02.504Z,52.7
2024-05-09T18:00:04.059Z,52.5
2024-05-09T18:15:02.493Z,54.2
2024-05-09T18:30:03.169Z,55.7
2024-05-09T18:45:03.247Z,56.7
2024-05-09T19:00:03.347Z,58.4
2024-05-09T19:15:03.081Z,63.3
2024-05-09T19:30:03.196Z,65.6
2024-05-09T19:45:02.931Z,66.7
2024-05-09T20:00:03.264Z,70.1
2024-05-09T20:15:02.820Z,71.7
2024-05-09T20:30:03.100Z,73.7
2024-05-09T20:45:02.723Z,75.7
2024-05-09T21:00:03.379Z,77.0
2024-05-09T21:15:02.602Z,78.5
2024-05-09T21:30:04.364Z,79.4
2024-05-09T22:00:04.156Z,80.9
2024-05-09T22:15:02.533Z,81.3
2024-05-09T22:30:03.852Z,82.1
2024-05-09T22:45:02.222Z,84.0
2024-05-09T23:00:03.200Z,85.5
2024-05-09T23:15:02.038Z,85.6
2024-05-09T23:30:03.324Z,86.2
2024-05-09T23:45:02.971Z,87.3
